createdAt,value
2019-04-03T00:01:08.299Z,3.10
2019-04-03T00:06:11.549Z,3.33
2019-04-03T00:11:14.951Z,2.67
2019-04-03T00:16:17.739Z,2.50
2019-04-03T00:21:20.531Z,3.27
2019-04-03T00:26:24.338Z,2.90
2019-04-03T00:31:27.141Z,2.93
2019-04-03T00:36:30.507Z,3.00
2019-04-03T00:41:33.403Z,3.03
2019-04-03T00:46:36.696Z,3.53
2019-04-03T00:51:39.584Z,2.33
2019-04-03T00:56:42.548Z,3.00
2019-04-03T01:01:45.567Z,2.67
2019-04-03T01:06:48.412Z,3.07
2019-04-03T01:11:51.112Z,2.83
2019-04-03T01:16:54.999Z,2.83
2019-04-03T01:21:57.935Z,3.33
2019-04-03T01:27:01.583Z,2.90
2019-04-03T01:32:04.506Z,2.93
2019-04-03T01:37:07.430Z,2.50
2019-04-03T01:42:10.322Z,3.50
2019-04-03T01:47:13.286Z,3.03
2019-04-03T01:52:16.082Z,2.70
2019-04-03T01:57:18.885Z,4.73
2019-04-03T02:02:21.785Z,2.90
2019-04-03T02:07:24.761Z,2.37
2019-04-03T02:12:27.681Z,3.23
2019-04-03T02:17:30.731Z,3.27
2019-04-03T02:22:33.495Z,2.97
2019-04-03T02:27:36.931Z,3.03
2019-04-03T02:32:39.799Z,2.67
2019-04-03T02:37:43.044Z,3.50
2019-04-03T02:42:45.983Z,2.97
2019-04-03T02:47:48.832Z,2.90
2019-04-03T02:52:56.960Z,3.20
2019-04-03T02:57:57.214Z,2.40
2019-04-03T03:03:00.562Z,2.80
2019-04-03T03:08:03.676Z,3.03
2019-04-03T03:13:06.733Z,2.97
2019-04-03T03:18:09.854Z,3.10
2019-04-03T03:23:12.977Z,3.57
2019-04-03T03:28:17.181Z,4.20
2019-04-03T03:33:35.171Z,2.80
2019-04-03T03:38:38.295Z,2.80
2019-04-03T03:43:42.984Z,2.97
2019-04-03T03:48:45.883Z,3.13
2019-04-03T03:53:49.112Z,3.33
2019-04-03T03:58:53.207Z,3.67
2019-04-03T04:03:56.578Z,3.40
2019-04-03T04:09:01.351Z,3.80
2019-04-03T04:14:06.071Z,3.20
2019-04-03T04:19:08.966Z,3.57
2019-04-03T04:24:12.111Z,3.40
2019-04-03T04:29:16.196Z,3.47
2019-04-03T04:34:19.565Z,3.03
2019-04-03T04:39:22.828Z,4.20
2019-04-03T04:44:27.051Z,3.13
2019-04-03T04:49:29.895Z,3.30
2019-04-03T05:00:05.715Z,3.60
2019-04-03T05:05:09.176Z,3.63
2019-04-03T05:10:12.224Z,3.43
2019-04-03T05:15:15.297Z,2.77
2019-04-03T05:20:19.863Z,3.20
2019-04-03T05:25:22.814Z,3.27
2019-04-03T05:30:30.299Z,4.17
2019-04-03T05:35:33.643Z,5.30
2019-04-03T05:40:36.710Z,3.83
2019-04-03T05:45:40.991Z,3.60
2019-04-03T05:50:45.242Z,2.93
2019-04-03T05:55:48.336Z,4.07
2019-04-03T06:01:03.567Z,4.10
2019-04-03T06:05:57.570Z,3.40
2019-04-03T06:11:03.619Z,3.83
2019-04-03T06:16:06.275Z,4.10
2019-04-03T06:21:09.413Z,4.47
2019-04-03T06:26:12.376Z,3.63
2019-04-03T06:31:15.238Z,4.23
2019-04-03T06:36:19.260Z,4.07
2019-04-03T06:41:22.152Z,3.47
2019-04-03T06:46:25.067Z,3.93
2019-04-03T06:51:27.986Z,3.80
2019-04-03T06:56:32.120Z,4.00
2019-04-03T07:01:35.021Z,3.50
2019-04-03T07:06:37.793Z,4.07
2019-04-03T07:11:43.257Z,4.23
2019-04-03T07:16:45.494Z,4.20
2019-04-03T07:21:48.700Z,4.13
2019-04-03T07:26:51.689Z,4.17
2019-04-03T07:31:55.357Z,5.43
2019-04-03T07:36:58.702Z,3.80
2019-04-03T07:42:01.563Z,4.60
2019-04-03T07:47:06.509Z,3.60
2019-04-03T07:52:09.711Z,4.10
2019-04-03T07:57:16.206Z,4.13
2019-04-03T08:02:18.853Z,4.50
2019-04-03T08:07:21.693Z,4.87
2019-04-03T08:12:24.491Z,3.97
2019-04-03T08:17:27.938Z,4.80
2019-04-03T08:22:32.753Z,4.50
2019-04-03T08:27:35.830Z,5.13
2019-04-03T08:32:38.631Z,5.10
2019-04-03T08:37:42.214Z,5.40
2019-04-03T08:42:45.268Z,5.37
2019-04-03T08:47:48.307Z,4.73
2019-04-03T08:52:51.297Z,6.00
2019-04-03T08:57:54.239Z,5.23
2019-04-03T09:02:57.117Z,5.53
2019-04-03T09:08:01.023Z,5.47
2019-04-03T09:13:16.202Z,6.63
2019-04-03T09:18:09.815Z,5.40
2019-04-03T09:23:12.871Z,6.07
2019-04-03T09:28:16.158Z,6.50
2019-04-03T09:33:19.615Z,6.20
2019-04-03T09:38:22.348Z,6.33
2019-04-03T09:43:25.708Z,6.13
2019-04-03T09:48:28.785Z,6.07
2019-04-03T09:53:31.639Z,7.07
2019-04-03T09:58:35.611Z,7.23
2019-04-03T10:03:39.744Z,7.20
2019-04-03T10:08:42.623Z,6.97
2019-04-03T10:13:45.557Z,6.93
2019-04-03T10:18:48.304Z,7.13
2019-04-03T10:23:51.207Z,7.30
2019-04-03T10:28:53.945Z,8.03
2019-04-03T10:33:56.719Z,8.03
2019-04-03T10:38:59.629Z,6.93
2019-04-03T10:44:03.141Z,7.30
2019-04-03T10:49:05.757Z,8.07
2019-04-03T10:54:10.962Z,7.12
2019-04-03T10:59:15.890Z,7.87
2019-04-03T11:04:19.278Z,7.35
2019-04-03T11:09:22.367Z,8.60
2019-04-03T11:14:25.156Z,7.15
2019-04-03T11:19:28.213Z,8.05
2019-04-03T11:24:31.346Z,8.48
2019-04-03T11:29:34.362Z,8.33
2019-04-03T11:34:37.175Z,8.83
2019-04-03T11:39:40.963Z,7.72
2019-04-03T11:44:43.754Z,8.00
2019-04-03T11:49:46.789Z,7.05
2019-04-03T11:54:52.199Z,8.05
2019-04-03T11:59:55.400Z,8.70
2019-04-03T12:04:59.094Z,7.85
2019-04-03T12:10:04.214Z,8.13
2019-04-03T12:15:07.750Z,8.40
2019-04-03T12:20:11.254Z,8.35
2019-04-03T12:25:14.344Z,8.93
2019-04-03T12:30:17.752Z,8.75
2019-04-03T12:35:20.685Z,9.05
2019-04-03T12:40:23.779Z,9.25
2019-04-03T12:45:27.535Z,9.43
2019-04-03T12:50:32.398Z,10.18
2019-04-03T12:55:36.525Z,8.93
2019-04-03T13:00:40.604Z,10.85
2019-04-03T13:05:43.903Z,10.50
2019-04-03T13:10:49.039Z,9.43
2019-04-03T13:15:52.615Z,9.60
2019-04-03T13:20:55.509Z,8.98
2019-04-03T13:25:59.471Z,9.23
2019-04-03T13:31:04.061Z,8.65
2019-04-03T13:36:07.315Z,8.58
2019-04-03T13:41:11.827Z,9.45
2019-04-03T13:46:14.709Z,8.03
2019-04-03T13:51:17.868Z,8.28
2019-04-03T13:56:23.188Z,7.75
2019-04-03T14:01:27.608Z,8.33
2019-04-03T14:06:30.076Z,8.58
2019-04-03T14:11:33.254Z,8.43
2019-04-03T14:16:36.083Z,7.85
2019-04-03T14:21:39.015Z,7.87
2019-04-03T14:26:44.311Z,7.62
2019-04-03T14:31:48.920Z,7.72
2019-04-03T14:36:52.675Z,8.05
2019-04-03T14:41:56.171Z,8.98
2019-04-03T14:46:59.478Z,7.30
2019-04-03T14:52:02.975Z,7.40
2019-04-03T14:57:15.587Z,7.72
2019-04-03T15:02:11.512Z,7.55
2019-04-03T15:07:17.149Z,6.90
2019-04-03T15:12:19.329Z,7.10
2019-04-03T15:17:22.501Z,7.60
2019-04-03T15:22:25.770Z,8.05
2019-04-03T15:27:29.152Z,7.97
2019-04-03T15:32:32.412Z,8.45
2019-04-03T15:37:35.178Z,8.18
2019-04-03T15:42:42.982Z,8.10
2019-04-03T15:47:47.283Z,8.15
2019-04-03T15:52:50.756Z,7.60
2019-04-03T15:57:57.328Z,8.15
2019-04-03T16:03:00.330Z,7.20
2019-04-03T16:08:04.153Z,8.50
2019-04-03T16:13:07.234Z,8.48
2019-04-03T16:18:10.685Z,7.60
2019-04-03T16:23:13.815Z,7.37
2019-04-03T16:28:19.544Z,33.02
2019-04-03T16:33:24.684Z,9.20
2019-04-03T16:38:28.478Z,13.60
2019-04-03T16:43:33.214Z,11.10
2019-04-03T16:48:38.589Z,6.83
2019-04-03T16:53:41.424Z,7.93
2019-04-03T16:58:47.867Z,11.70
2019-04-03T17:03:50.653Z,6.53
2019-04-03T17:08:54.406Z,8.30
2019-04-03T17:13:58.082Z,7.00
2019-04-03T17:19:01.203Z,8.57
2019-04-03T17:24:04.309Z,7.57
2019-04-03T17:29:07.483Z,13.13
2019-04-03T17:34:11.716Z,8.77
2019-04-03T17:39:15.897Z,7.47
2019-04-03T17:44:20.138Z,10.67
2019-04-03T17:49:24.561Z,8.07
2019-04-03T17:54:28.147Z,7.97
2019-04-03T17:59:31.784Z,6.60
2019-04-03T18:04:34.569Z,8.20
2019-04-03T18:09:42.040Z,6.77
2019-04-03T18:14:48.450Z,7.80
2019-04-03T18:19:52.051Z,6.93
2019-04-03T18:24:58.380Z,6.63
2019-04-03T18:30:01.350Z,6.67
2019-04-03T18:35:07.272Z,11.90
2019-04-03T18:40:13.959Z,6.70
2019-04-03T18:45:24.906Z,6.20
2019-04-03T18:50:20.053Z,7.03
2019-04-03T18:55:24.429Z,8.73
2019-04-03T19:00:30.421Z,22.73
2019-04-03T19:05:31.933Z,20.20
2019-04-03T19:10:34.932Z,6.83
2019-04-03T19:15:38.196Z,6.13
2019-04-03T19:20:42.115Z,6.37
2019-04-03T19:25:45.328Z,7.37
2019-04-03T19:30:48.198Z,7.40
2019-04-03T19:35:51.581Z,8.53
2019-04-03T19:40:54.313Z,6.90
2019-04-03T19:45:57.496Z,7.37
2019-04-03T19:51:02.698Z,6.77
2019-04-03T19:56:06.527Z,7.03
2019-04-03T20:01:15.240Z,7.23
2019-04-03T20:06:18.170Z,6.40
2019-04-03T20:11:23.962Z,6.33
2019-04-03T20:16:31.633Z,7.77
2019-04-03T20:21:35.883Z,6.90
2019-04-03T20:26:39.072Z,7.20
2019-04-03T20:31:41.874Z,6.70
2019-04-03T20:36:45.356Z,8.13
2019-04-03T20:41:48.128Z,6.93
2019-04-03T20:46:50.900Z,8.60
2019-04-03T20:51:53.565Z,8.07
2019-04-03T20:56:58.099Z,9.30
2019-04-03T21:02:01.443Z,8.13
2019-04-03T21:07:04.167Z,9.63
2019-04-03T21:12:06.856Z,8.43
2019-04-03T21:17:09.655Z,7.10
2019-04-03T21:22:12.446Z,8.13
2019-04-03T21:27:15.220Z,6.87
2019-04-03T21:32:17.985Z,7.40
2019-04-03T21:37:20.660Z,7.97
2019-04-03T21:42:25.010Z,8.13
2019-04-03T21:47:28.031Z,9.97
2019-04-03T21:52:30.753Z,8.00
2019-04-03T21:57:33.482Z,8.17
2019-04-03T22:02:36.288Z,8.43
2019-04-03T22:07:42.814Z,8.07
2019-04-03T22:12:46.066Z,8.97
2019-04-03T22:17:52.403Z,9.03
2019-04-03T22:22:54.446Z,9.10
2019-04-03T22:27:57.141Z,8.30
2019-04-03T22:32:59.890Z,8.43
2019-04-03T22:38:05.298Z,8.67
2019-04-03T22:43:07.130Z,8.20
2019-04-03T22:48:11.076Z,8.03
2019-04-03T22:53:13.855Z,8.00
2019-04-03T22:58:16.692Z,15.10
2019-04-03T23:03:19.433Z,10.77
2019-04-03T23:08:22.775Z,8.90
2019-04-03T23:13:26.116Z,8.23
2019-04-03T23:18:28.870Z,8.37
2019-04-03T23:23:31.715Z,7.50
2019-04-03T23:28:34.654Z,8.70
2019-04-03T23:33:37.519Z,9.33
2019-04-03T23:38:40.498Z,8.40
2019-04-03T23:43:43.311Z,8.43
2019-04-03T23:48:48.665Z,8.17
2019-04-03T23:53:50.748Z,8.23
2019-04-03T23:58:53.493Z,8.63
